sensor_id;sensor_type;location;lat;lon;timestamp;P1;durP1;ratioP1;P2;durP2;ratioP2
16998;SDS011;10211;49.476;11.010;2023-11-21T00:02:16;1.70;;;1.70;;
16998;SDS011;10211;49.476;11.010;2023-11-21T00:04:44;1.90;;;1.80;;
16998;SDS011;10211;49.476;11.010;2023-11-21T00:07:10;2.90;;;1.70;;
16998;SDS011;10211;49.476;11.010;2023-11-21T00:09:37;2.17;;;1.93;;
16998;SDS011;10211;49.476;11.010;2023-11-21T00:12:04;3.97;;;2.30;;
16998;SDS011;10211;49.476;11.010;2023-11-21T00:14:31;3.00;;;1.80;;
16998;SDS011;10211;49.476;11.010;2023-11-21T00:16:59;2.13;;;1.90;;
16998;SDS011;10211;49.476;11.010;2023-11-21T00:19:25;1.93;;;1.80;;
16998;SDS011;10211;49.476;11.010;2023-11-21T00:21:53;2.30;;;2.13;;
16998;SDS011;10211;49.476;11.010;2023-11-21T00:24:20;3.20;;;2.30;;
16998;SDS011;10211;49.476;11.010;2023-11-21T00:26:47;1.70;;;1.60;;
16998;SDS011;10211;49.476;11.010;2023-11-21T00:29:13;5.00;;;2.30;;
16998;SDS011;10211;49.476;11.010;2023-11-21T00:31:42;3.47;;;2.07;;
16998;SDS011;10211;49.476;11.010;2023-11-21T00:34:09;1.97;;;1.83;;
16998;SDS011;10211;49.476;11.010;2023-11-21T00:36:37;1.93;;;1.83;;
16998;SDS011;10211;49.476;11.010;2023-11-21T00:39:05;2.20;;;2.00;;
16998;SDS011;10211;49.476;11.010;2023-11-21T00:41:32;2.00;;;1.90;;
16998;SDS011;10211;49.476;11.010;2023-11-21T00:43:59;2.13;;;2.03;;
16998;SDS011;10211;49.476;11.010;2023-11-21T00:46:26;2.00;;;1.90;;
16998;SDS011;10211;49.476;11.010;2023-11-21T00:48:54;1.70;;;1.60;;
16998;SDS011;10211;49.476;11.010;2023-11-21T00:51:20;1.97;;;1.87;;
16998;SDS011;10211;49.476;11.010;2023-11-21T00:53:48;1.87;;;1.73;;
16998;SDS011;10211;49.476;11.010;2023-11-21T00:56:16;1.77;;;1.70;;
16998;SDS011;10211;49.476;11.010;2023-11-21T00:58:42;2.23;;;2.03;;
16998;SDS011;10211;49.476;11.010;2023-11-21T01:01:14;2.43;;;2.20;;
16998;SDS011;10211;49.476;11.010;2023-11-21T01:03:41;2.70;;;2.47;;
16998;SDS011;10211;49.476;11.010;2023-11-21T01:06:08;2.40;;;2.07;;
16998;SDS011;10211;49.476;11.010;2023-11-21T01:08:35;2.40;;;2.10;;
16998;SDS011;10211;49.476;11.010;2023-11-21T01:11:01;2.40;;;2.27;;
16998;SDS011;10211;49.476;11.010;2023-11-21T01:13:30;2.87;;;2.17;;
16998;SDS011;10211;49.476;11.010;2023-11-21T01:15:56;2.30;;;2.10;;
16998;SDS011;10211;49.476;11.010;2023-11-21T01:18:23;2.27;;;2.17;;
16998;SDS011;10211;49.476;11.010;2023-11-21T01:20:50;3.70;;;2.20;;
16998;SDS011;10211;49.476;11.010;2023-11-21T01:23:18;2.00;;;1.90;;
16998;SDS011;10211;49.476;11.010;2023-11-21T01:25:45;4.20;;;1.93;;
16998;SDS011;10211;49.476;11.010;2023-11-21T01:28:11;2.67;;;2.40;;
16998;SDS011;10211;49.476;11.010;2023-11-21T01:30:39;2.80;;;2.27;;
16998;SDS011;10211;49.476;11.010;2023-11-21T01:33:06;2.47;;;1.93;;
16998;SDS011;10211;49.476;11.010;2023-11-21T01:35:33;2.40;;;2.20;;
16998;SDS011;10211;49.476;11.010;2023-11-21T01:38:00;2.90;;;2.27;;
16998;SDS011;10211;49.476;11.010;2023-11-21T01:40:28;2.33;;;2.00;;
16998;SDS011;10211;49.476;11.010;2023-11-21T01:42:55;2.10;;;2.00;;
16998;SDS011;10211;49.476;11.010;2023-11-21T01:45:22;3.70;;;2.10;;
16998;SDS011;10211;49.476;11.010;2023-11-21T01:47:51;1.93;;;1.83;;
16998;SDS011;10211;49.476;11.010;2023-11-21T01:50:18;3.83;;;1.73;;
16998;SDS011;10211;49.476;11.010;2023-11-21T01:52:47;1.90;;;1.80;;
16998;SDS011;10211;49.476;11.010;2023-11-21T01:55:14;2.13;;;1.80;;
16998;SDS011;10211;49.476;11.010;2023-11-21T01:57:44;3.40;;;1.83;;
16998;SDS011;10211;49.476;11.010;2023-11-21T02:00:12;2.40;;;2.10;;
16998;SDS011;10211;49.476;11.010;2023-11-21T02:02:41;1.90;;;1.80;;
16998;SDS011;10211;49.476;11.010;2023-11-21T02:05:10;2.50;;;1.60;;
16998;SDS011;10211;49.476;11.010;2023-11-21T02:07:37;2.13;;;1.80;;
16998;SDS011;10211;49.476;11.010;2023-11-21T02:10:06;4.67;;;2.00;;
16998;SDS011;10211;49.476;11.010;2023-11-21T02:12:33;6.67;;;1.90;;
16998;SDS011;10211;49.476;11.010;2023-11-21T02:15:01;3.37;;;2.10;;
16998;SDS011;10211;49.476;11.010;2023-11-21T02:17:30;2.20;;;2.10;;
16998;SDS011;10211;49.476;11.010;2023-11-21T02:19:57;1.90;;;1.80;;
16998;SDS011;10211;49.476;11.010;2023-11-21T02:22:26;4.27;;;2.43;;
16998;SDS011;10211;49.476;11.010;2023-11-21T02:24:57;3.37;;;2.10;;
16998;SDS011;10211;49.476;11.010;2023-11-21T02:27:23;2.20;;;2.00;;
16998;SDS011;10211;49.476;11.010;2023-11-21T02:29:52;3.27;;;1.80;;
16998;SDS011;10211;49.476;11.010;2023-11-21T02:32:19;1.90;;;1.80;;
16998;SDS011;10211;49.476;11.010;2023-11-21T02:34:47;1.80;;;1.70;;
16998;SDS011;10211;49.476;11.010;2023-11-21T02:37:14;1.90;;;1.80;;
16998;SDS011;10211;49.476;11.010;2023-11-21T02:39:41;1.80;;;1.70;;
16998;SDS011;10211;49.476;11.010;2023-11-21T02:42:09;1.70;;;1.70;;
16998;SDS011;10211;49.476;11.010;2023-11-21T02:44:36;3.60;;;1.97;;
16998;SDS011;10211;49.476;11.010;2023-11-21T02:47:03;2.03;;;1.50;;
16998;SDS011;10211;49.476;11.010;2023-11-21T02:49:30;1.70;;;1.60;;
16998;SDS011;10211;49.476;11.010;2023-11-21T02:51:57;2.00;;;1.53;;
16998;SDS011;10211;49.476;11.010;2023-11-21T02:54:23;1.90;;;1.80;;
16998;SDS011;10211;49.476;11.010;2023-11-21T02:56:52;3.03;;;2.07;;
16998;SDS011;10211;49.476;11.010;2023-11-21T02:59:20;1.60;;;1.50;;
16998;SDS011;10211;49.476;11.010;2023-11-21T03:01:47;2.97;;;1.63;;
16998;SDS011;10211;49.476;11.010;2023-11-21T03:04:14;2.07;;;1.77;;
16998;SDS011;10211;49.476;11.010;2023-11-21T03:06:43;1.70;;;1.60;;
16998;SDS011;10211;49.476;11.010;2023-11-21T03:09:10;1.80;;;1.60;;
16998;SDS011;10211;49.476;11.010;2023-11-21T03:11:38;1.43;;;1.43;;
16998;SDS011;10211;49.476;11.010;2023-11-21T03:14:04;2.57;;;1.90;;
16998;SDS011;10211;49.476;11.010;2023-11-21T03:16:33;3.13;;;1.80;;
16998;SDS011;10211;49.476;11.010;2023-11-21T03:19:00;2.30;;;1.73;;
16998;SDS011;10211;49.476;11.010;2023-11-21T03:21:26;2.97;;;1.80;;
16998;SDS011;10211;49.476;11.010;2023-11-21T03:23:54;1.47;;;1.43;;
16998;SDS011;10211;49.476;11.010;2023-11-21T03:26:21;1.87;;;1.77;;
16998;SDS011;10211;49.476;11.010;2023-11-21T03:28:47;2.10;;;1.80;;
16998;SDS011;10211;49.476;11.010;2023-11-21T03:31:15;1.80;;;1.70;;
16998;SDS011;10211;49.476;11.010;2023-11-21T03:33:44;2.03;;;1.83;;
16998;SDS011;10211;49.476;11.010;2023-11-21T03:36:12;3.03;;;1.70;;
16998;SDS011;10211;49.476;11.010;2023-11-21T03:38:39;1.87;;;1.70;;
16998;SDS011;10211;49.476;11.010;2023-11-21T03:41:06;3.80;;;1.93;;
16998;SDS011;10211;49.476;11.010;2023-11-21T03:43:35;3.17;;;1.90;;
16998;SDS011;10211;49.476;11.010;2023-11-21T03:46:02;1.70;;;1.60;;
16998;SDS011;10211;49.476;11.010;2023-11-21T03:48:28;2.20;;;1.83;;
16998;SDS011;10211;49.476;11.010;2023-11-21T03:50:56;2.63;;;1.80;;
16998;SDS011;10211;49.476;11.010;2023-11-21T03:53:23;2.17;;;1.70;;
16998;SDS011;10211;49.476;11.010;2023-11-21T03:55:50;3.80;;;1.87;;
16998;SDS011;10211;49.476;11.010;2023-11-21T03:58:17;3.40;;;1.90;;
16998;SDS011;10211;49.476;11.010;2023-11-21T04:00:44;2.13;;;1.90;;
16998;SDS011;10211;49.476;11.010;2023-11-21T04:03:10;1.83;;;1.73;;
16998;SDS011;10211;49.476;11.010;2023-11-21T04:05:38;3.80;;;2.10;;
16998;SDS011;10211;49.476;11.010;2023-11-21T04:08:07;2.77;;;2.07;;
16998;SDS011;10211;49.476;11.010;2023-11-21T04:10:34;2.80;;;1.97;;
16998;SDS011;10211;49.476;11.010;2023-11-21T04:13:01;1.80;;;1.80;;
16998;SDS011;10211;49.476;11.010;2023-11-21T04:15:27;2.10;;;1.90;;
16998;SDS011;10211;49.476;11.010;2023-11-21T04:17:54;3.67;;;1.97;;
16998;SDS011;10211;49.476;11.010;2023-11-21T04:20:21;1.80;;;1.70;;
16998;SDS011;10211;49.476;11.010;2023-11-21T04:22:48;3.37;;;1.90;;
16998;SDS011;10211;49.476;11.010;2023-11-21T04:25:16;2.63;;;2.30;;
16998;SDS011;10211;49.476;11.010;2023-11-21T04:27:44;2.00;;;1.90;;
16998;SDS011;10211;49.476;11.010;2023-11-21T04:30:11;3.37;;;2.20;;
16998;SDS011;10211;49.476;11.010;2023-11-21T04:32:39;2.13;;;1.90;;
16998;SDS011;10211;49.476;11.010;2023-11-21T04:35:07;2.97;;;1.70;;
16998;SDS011;10211;49.476;11.010;2023-11-21T04:37:34;2.20;;;2.00;;
16998;SDS011;10211;49.476;11.010;2023-11-21T04:40:01;3.43;;;2.17;;
16998;SDS011;10211;49.476;11.010;2023-11-21T04:42:32;2.50;;;2.30;;
16998;SDS011;10211;49.476;11.010;2023-11-21T04:45:00;2.60;;;1.83;;
16998;SDS011;10211;49.476;11.010;2023-11-21T04:47:30;2.80;;;2.23;;
16998;SDS011;10211;49.476;11.010;2023-11-21T04:49:57;5.80;;;2.60;;
16998;SDS011;10211;49.476;11.010;2023-11-21T04:52:24;1.97;;;1.80;;
16998;SDS011;10211;49.476;11.010;2023-11-21T04:54:51;2.33;;;2.13;;
16998;SDS011;10211;49.476;11.010;2023-11-21T04:57:19;1.83;;;1.73;;
16998;SDS011;10211;49.476;11.010;2023-11-21T04:59:48;1.87;;;1.77;;
16998;SDS011;10211;49.476;11.010;2023-11-21T05:02:15;2.10;;;2.00;;
16998;SDS011;10211;49.476;11.010;2023-11-21T05:04:44;2.80;;;1.90;;
16998;SDS011;10211;49.476;11.010;2023-11-21T05:07:11;2.17;;;1.97;;
16998;SDS011;10211;49.476;11.010;2023-11-21T05:09:40;2.23;;;2.03;;
16998;SDS011;10211;49.476;11.010;2023-11-21T05:12:09;3.00;;;2.30;;
16998;SDS011;10211;49.476;11.010;2023-11-21T05:14:35;2.23;;;2.03;;
16998;SDS011;10211;49.476;11.010;2023-11-21T05:17:04;3.67;;;1.87;;
16998;SDS011;10211;49.476;11.010;2023-11-21T05:19:30;2.30;;;1.90;;
16998;SDS011;10211;49.476;11.010;2023-11-21T05:21:58;2.30;;;2.10;;
16998;SDS011;10211;49.476;11.010;2023-11-21T05:24:25;2.03;;;1.93;;
16998;SDS011;10211;49.476;11.010;2023-11-21T05:26:53;3.10;;;2.23;;
16998;SDS011;10211;49.476;11.010;2023-11-21T05:29:21;2.43;;;2.00;;
16998;SDS011;10211;49.476;11.010;2023-11-21T05:31:47;2.30;;;1.83;;
16998;SDS011;10211;49.476;11.010;2023-11-21T05:34:15;1.90;;;1.80;;
16998;SDS011;10211;49.476;11.010;2023-11-21T05:36:43;2.23;;;2.10;;
16998;SDS011;10211;49.476;11.010;2023-11-21T05:39:10;3.37;;;1.97;;
16998;SDS011;10211;49.476;11.010;2023-11-21T05:41:37;1.80;;;1.70;;
16998;SDS011;10211;49.476;11.010;2023-11-21T05:44:04;3.73;;;2.17;;
16998;SDS011;10211;49.476;11.010;2023-11-21T05:46:31;2.57;;;1.70;;
16998;SDS011;10211;49.476;11.010;2023-11-21T05:48:58;3.90;;;2.23;;
16998;SDS011;10211;49.476;11.010;2023-11-21T05:51:26;2.37;;;2.20;;
16998;SDS011;10211;49.476;11.010;2023-11-21T05:53:53;2.03;;;1.93;;
16998;SDS011;10211;49.476;11.010;2023-11-21T05:56:19;2.30;;;2.10;;
16998;SDS011;10211;49.476;11.010;2023-11-21T05:58:46;2.07;;;1.97;;
16998;SDS011;10211;49.476;11.010;2023-11-21T06:01:13;2.03;;;1.80;;
16998;SDS011;10211;49.476;11.010;2023-11-21T06:03:40;2.00;;;1.90;;
16998;SDS011;10211;49.476;11.010;2023-11-21T06:06:07;2.80;;;2.00;;
16998;SDS011;10211;49.476;11.010;2023-11-21T06:08:35;2.10;;;1.90;;
16998;SDS011;10211;49.476;11.010;2023-11-21T06:11:02;2.70;;;2.10;;
16998;SDS011;10211;49.476;11.010;2023-11-21T06:13:29;2.80;;;2.10;;
16998;SDS011;10211;49.476;11.010;2023-11-21T06:15:55;2.43;;;2.20;;
16998;SDS011;10211;49.476;11.010;2023-11-21T06:18:22;1.90;;;1.80;;
16998;SDS011;10211;49.476;11.010;2023-11-21T06:20:49;2.50;;;2.13;;
16998;SDS011;10211;49.476;11.010;2023-11-21T06:23:18;5.10;;;2.00;;
16998;SDS011;10211;49.476;11.010;2023-11-21T06:25:46;2.37;;;2.20;;
16998;SDS011;10211;49.476;11.010;2023-11-21T06:28:13;2.40;;;2.20;;
16998;SDS011;10211;49.476;11.010;2023-11-21T06:30:42;3.13;;;2.30;;
16998;SDS011;10211;49.476;11.010;2023-11-21T06:33:10;5.00;;;2.67;;
16998;SDS011;10211;49.476;11.010;2023-11-21T06:35:37;3.60;;;2.33;;
16998;SDS011;10211;49.476;11.010;2023-11-21T06:38:05;8.17;;;3.10;;
16998;SDS011;10211;49.476;11.010;2023-11-21T06:40:31;3.70;;;2.50;;
16998;SDS011;10211;49.476;11.010;2023-11-21T06:43:00;2.67;;;2.47;;
16998;SDS011;10211;49.476;11.010;2023-11-21T06:45:26;2.90;;;2.63;;
16998;SDS011;10211;49.476;11.010;2023-11-21T06:47:53;2.87;;;2.63;;
16998;SDS011;10211;49.476;11.010;2023-11-21T06:50:20;6.80;;;3.13;;
16998;SDS011;10211;49.476;11.010;2023-11-21T06:52:47;3.17;;;2.83;;
16998;SDS011;10211;49.476;11.010;2023-11-21T06:55:14;3.90;;;3.17;;
16998;SDS011;10211;49.476;11.010;2023-11-21T06:57:42;3.10;;;2.90;;
16998;SDS011;10211;49.476;11.010;2023-11-21T07:00:11;5.30;;;3.13;;
16998;SDS011;10211;49.476;11.010;2023-11-21T07:02:39;3.67;;;3.20;;
16998;SDS011;10211;49.476;11.010;2023-11-21T07:05:06;5.83;;;3.63;;
16998;SDS011;10211;49.476;11.010;2023-11-21T07:07:33;6.00;;;3.50;;
16998;SDS011;10211;49.476;11.010;2023-11-21T07:10:00;3.60;;;3.30;;
16998;SDS011;10211;49.476;11.010;2023-11-21T07:12:28;4.43;;;3.30;;
16998;SDS011;10211;49.476;11.010;2023-11-21T07:14:55;4.37;;;3.07;;
16998;SDS011;10211;49.476;11.010;2023-11-21T07:17:23;3.83;;;2.97;;
16998;SDS011;10211;49.476;11.010;2023-11-21T07:19:49;5.23;;;3.60;;
16998;SDS011;10211;49.476;11.010;2023-11-21T07:22:16;5.87;;;3.33;;
16998;SDS011;10211;49.476;11.010;2023-11-21T07:24:47;3.10;;;2.80;;
16998;SDS011;10211;49.476;11.010;2023-11-21T07:27:14;4.47;;;3.40;;
16998;SDS011;10211;49.476;11.010;2023-11-21T07:29:41;3.23;;;2.93;;
16998;SDS011;10211;49.476;11.010;2023-11-21T07:32:08;4.57;;;3.63;;
16998;SDS011;10211;49.476;11.010;2023-11-21T07:34:36;4.33;;;3.47;;
16998;SDS011;10211;49.476;11.010;2023-11-21T07:37:03;4.40;;;3.20;;
16998;SDS011;10211;49.476;11.010;2023-11-21T07:39:30;3.07;;;2.77;;
16998;SDS011;10211;49.476;11.010;2023-11-21T07:41:56;3.20;;;3.00;;
16998;SDS011;10211;49.476;11.010;2023-11-21T07:44:23;3.10;;;2.80;;
16998;SDS011;10211;49.476;11.010;2023-11-21T07:46:51;3.57;;;3.27;;
16998;SDS011;10211;49.476;11.010;2023-11-21T07:49:22;7.63;;;3.90;;
16998;SDS011;10211;49.476;11.010;2023-11-21T07:51:50;4.50;;;3.30;;
16998;SDS011;10211;49.476;11.010;2023-11-21T07:54:17;3.20;;;3.00;;
16998;SDS011;10211;49.476;11.010;2023-11-21T07:56:43;7.63;;;4.03;;
16998;SDS011;10211;49.476;11.010;2023-11-21T07:59:10;3.77;;;3.10;;
16998;SDS011;10211;49.476;11.010;2023-11-21T08:01:37;5.27;;;3.60;;
16998;SDS011;10211;49.476;11.010;2023-11-21T08:04:05;7.10;;;3.47;;
16998;SDS011;10211;49.476;11.010;2023-11-21T08:06:33;4.37;;;3.50;;
16998;SDS011;10211;49.476;11.010;2023-11-21T08:09:01;5.23;;;3.33;;
16998;SDS011;10211;49.476;11.010;2023-11-21T08:11:28;3.83;;;3.40;;
16998;SDS011;10211;49.476;11.010;2023-11-21T08:13:57;3.90;;;2.67;;
16998;SDS011;10211;49.476;11.010;2023-11-21T08:16:24;4.23;;;3.70;;
16998;SDS011;10211;49.476;11.010;2023-11-21T08:18:50;3.23;;;2.93;;
16998;SDS011;10211;49.476;11.010;2023-11-21T08:21:17;3.80;;;3.30;;
16998;SDS011;10211;49.476;11.010;2023-11-21T08:23:45;5.90;;;3.70;;
16998;SDS011;10211;49.476;11.010;2023-11-21T08:26:13;3.50;;;3.20;;
16998;SDS011;10211;49.476;11.010;2023-11-21T08:28:43;3.87;;;3.57;;
16998;SDS011;10211;49.476;11.010;2023-11-21T08:31:10;4.37;;;3.37;;
16998;SDS011;10211;49.476;11.010;2023-11-21T08:33:36;4.10;;;2.97;;
16998;SDS011;10211;49.476;11.010;2023-11-21T08:36:06;3.77;;;3.27;;
16998;SDS011;10211;49.476;11.010;2023-11-21T08:38:33;3.47;;;3.17;;
16998;SDS011;10211;49.476;11.010;2023-11-21T08:41:02;3.83;;;3.53;;
16998;SDS011;10211;49.476;11.010;2023-11-21T08:43:33;5.73;;;3.43;;
16998;SDS011;10211;49.476;11.010;2023-11-21T08:46:00;4.77;;;3.20;;
16998;SDS011;10211;49.476;11.010;2023-11-21T08:48:28;5.43;;;4.03;;
16998;SDS011;10211;49.476;11.010;2023-11-21T08:50:55;3.70;;;3.33;;
16998;SDS011;10211;49.476;11.010;2023-11-21T08:53:21;5.07;;;3.50;;
16998;SDS011;10211;49.476;11.010;2023-11-21T08:55:48;4.77;;;3.80;;
16998;SDS011;10211;49.476;11.010;2023-11-21T08:58:15;3.87;;;3.53;;
16998;SDS011;10211;49.476;11.010;2023-11-21T09:00:43;4.53;;;3.17;;
16998;SDS011;10211;49.476;11.010;2023-11-21T09:03:11;6.87;;;4.07;;
16998;SDS011;10211;49.476;11.010;2023-11-21T09:05:38;4.17;;;3.77;;
16998;SDS011;10211;49.476;11.010;2023-11-21T09:08:05;3.67;;;3.33;;
16998;SDS011;10211;49.476;11.010;2023-11-21T09:10:32;3.73;;;3.43;;
16998;SDS011;10211;49.476;11.010;2023-11-21T09:13:00;4.87;;;3.40;;
16998;SDS011;10211;49.476;11.010;2023-11-21T09:15:27;4.67;;;4.27;;
16998;SDS011;10211;49.476;11.010;2023-11-21T09:17:56;4.20;;;3.80;;
16998;SDS011;10211;49.476;11.010;2023-11-21T09:20:23;5.60;;;3.30;;
16998;SDS011;10211;49.476;11.010;2023-11-21T09:22:50;4.77;;;3.03;;
16998;SDS011;10211;49.476;11.010;2023-11-21T09:25:16;4.00;;;3.70;;
16998;SDS011;10211;49.476;11.010;2023-11-21T09:27:44;3.37;;;3.03;;
16998;SDS011;10211;49.476;11.010;2023-11-21T09:30:11;6.13;;;4.07;;
16998;SDS011;10211;49.476;11.010;2023-11-21T09:32:39;5.40;;;3.10;;
16998;SDS011;10211;49.476;11.010;2023-11-21T09:35:08;7.20;;;3.00;;
16998;SDS011;10211;49.476;11.010;2023-11-21T09:37:35;3.97;;;3.67;;
16998;SDS011;10211;49.476;11.010;2023-11-21T09:40:03;6.33;;;4.10;;
16998;SDS011;10211;49.476;11.010;2023-11-21T09:42:30;4.93;;;3.57;;
16998;SDS011;10211;49.476;11.010;2023-11-21T09:45:05;3.80;;;3.50;;
16998;SDS011;10211;49.476;11.010;2023-11-21T09:47:40;3.33;;;3.13;;
16998;SDS011;10211;49.476;11.010;2023-11-21T09:50:10;3.80;;;3.30;;
16998;SDS011;10211;49.476;11.010;2023-11-21T09:52:41;4.53;;;3.77;;
16998;SDS011;10211;49.476;11.010;2023-11-21T09:55:15;4.00;;;3.60;;
16998;SDS011;10211;49.476;11.010;2023-11-21T09:57:45;3.70;;;3.40;;
16998;SDS011;10211;49.476;11.010;2023-11-21T10:00:13;8.07;;;4.17;;
16998;SDS011;10211;49.476;11.010;2023-11-21T10:02:43;5.80;;;4.20;;
16998;SDS011;10211;49.476;11.010;2023-11-21T10:05:11;6.77;;;3.23;;
16998;SDS011;10211;49.476;11.010;2023-11-21T10:07:38;3.90;;;3.50;;
16998;SDS011;10211;49.476;11.010;2023-11-21T10:10:06;4.77;;;3.87;;
16998;SDS011;10211;49.476;11.010;2023-11-21T10:12:34;4.10;;;3.60;;
16998;SDS011;10211;49.476;11.010;2023-11-21T10:15:03;5.03;;;3.30;;
16998;SDS011;10211;49.476;11.010;2023-11-21T10:17:36;5.83;;;3.90;;
16998;SDS011;10211;49.476;11.010;2023-11-21T10:20:08;4.23;;;3.83;;
16998;SDS011;10211;49.476;11.010;2023-11-21T10:22:38;5.27;;;3.83;;
16998;SDS011;10211;49.476;11.010;2023-11-21T10:25:07;4.67;;;4.20;;
16998;SDS011;10211;49.476;11.010;2023-11-21T10:27:34;6.47;;;4.30;;
16998;SDS011;10211;49.476;11.010;2023-11-21T10:30:00;4.33;;;3.90;;
16998;SDS011;10211;49.476;11.010;2023-11-21T10:32:28;6.57;;;4.10;;
16998;SDS011;10211;49.476;11.010;2023-11-21T10:34:57;4.63;;;4.23;;
16998;SDS011;10211;49.476;11.010;2023-11-21T10:37:26;4.43;;;4.03;;
16998;SDS011;10211;49.476;11.010;2023-11-21T10:39:56;5.10;;;3.83;;
16998;SDS011;10211;49.476;11.010;2023-11-21T10:42:23;4.27;;;3.87;;
16998;SDS011;10211;49.476;11.010;2023-11-21T10:44:52;3.93;;;3.63;;
16998;SDS011;10211;49.476;11.010;2023-11-21T10:47:19;6.77;;;3.90;;
16998;SDS011;10211;49.476;11.010;2023-11-21T10:49:48;2.83;;;2.63;;
16998;SDS011;10211;49.476;11.010;2023-11-21T10:52:14;4.63;;;3.03;;
16998;SDS011;10211;49.476;11.010;2023-11-21T10:54:43;2.60;;;2.40;;
16998;SDS011;10211;49.476;11.010;2023-11-21T10:57:10;2.30;;;2.10;;
16998;SDS011;10211;49.476;11.010;2023-11-21T10:59:43;6.37;;;2.60;;
16998;SDS011;10211;49.476;11.010;2023-11-21T11:02:15;5.00;;;2.67;;
16998;SDS011;10211;49.476;11.010;2023-11-21T11:04:50;1.90;;;1.80;;
16998;SDS011;10211;49.476;11.010;2023-11-21T11:07:18;2.93;;;2.63;;
16998;SDS011;10211;49.476;11.010;2023-11-21T11:09:52;3.20;;;2.50;;
16998;SDS011;10211;49.476;11.010;2023-11-21T11:12:19;4.63;;;2.53;;
16998;SDS011;10211;49.476;11.010;2023-11-21T11:14:46;4.30;;;2.60;;
16998;SDS011;10211;49.476;11.010;2023-11-21T11:17:14;3.00;;;2.80;;
16998;SDS011;10211;49.476;11.010;2023-11-21T11:19:41;2.90;;;2.70;;
16998;SDS011;10211;49.476;11.010;2023-11-21T11:22:12;5.03;;;2.80;;
16998;SDS011;10211;49.476;11.010;2023-11-21T11:24:57;3.63;;;2.70;;
16998;SDS011;10211;49.476;11.010;2023-11-21T11:27:52;3.60;;;2.30;;
16998;SDS011;10211;49.476;11.010;2023-11-21T11:30:27;3.23;;;2.17;;
16998;SDS011;10211;49.476;11.010;2023-11-21T11:33:08;1.83;;;1.73;;
16998;SDS011;10211;49.476;11.010;2023-11-21T11:35:42;4.27;;;1.90;;
16998;SDS011;10211;49.476;11.010;2023-11-21T11:38:19;5.20;;;2.20;;
16998;SDS011;10211;49.476;11.010;2023-11-21T11:40:51;2.73;;;1.90;;
16998;SDS011;10211;49.476;11.010;2023-11-21T11:43:24;4.67;;;2.00;;
16998;SDS011;10211;49.476;11.010;2023-11-21T11:45:51;1.77;;;1.67;;
16998;SDS011;10211;49.476;11.010;2023-11-21T11:48:21;2.60;;;2.10;;
16998;SDS011;10211;49.476;11.010;2023-11-21T11:51:01;2.40;;;2.17;;
16998;SDS011;10211;49.476;11.010;2023-11-21T11:53:33;3.53;;;2.30;;
16998;SDS011;10211;49.476;11.010;2023-11-21T11:59:00;4.77;;;3.70;;
16998;SDS011;10211;49.476;11.010;2023-11-21T12:01:28;4.53;;;2.93;;
16998;SDS011;10211;49.476;11.010;2023-11-21T12:06:50;3.07;;;2.70;;
16998;SDS011;10211;49.476;11.010;2023-11-21T12:09:20;6.60;;;3.13;;
16998;SDS011;10211;49.476;11.010;2023-11-21T12:11:49;4.90;;;3.23;;
16998;SDS011;10211;49.476;11.010;2023-11-21T12:14:16;6.10;;;3.50;;
16998;SDS011;10211;49.476;11.010;2023-11-21T12:16:43;5.37;;;3.87;;
16998;SDS011;10211;49.476;11.010;2023-11-21T12:19:11;3.20;;;2.90;;
16998;SDS011;10211;49.476;11.010;2023-11-21T12:21:38;4.10;;;2.87;;
16998;SDS011;10211;49.476;11.010;2023-11-21T12:24:06;3.97;;;3.00;;
16998;SDS011;10211;49.476;11.010;2023-11-21T12:26:33;7.70;;;3.00;;
16998;SDS011;10211;49.476;11.010;2023-11-21T12:29:02;6.30;;;2.60;;
16998;SDS011;10211;49.476;11.010;2023-11-21T12:31:32;3.40;;;2.63;;
16998;SDS011;10211;49.476;11.010;2023-11-21T12:33:59;3.63;;;2.93;;
16998;SDS011;10211;49.476;11.010;2023-11-21T12:36:26;2.83;;;2.50;;
16998;SDS011;10211;49.476;11.010;2023-11-21T12:38:54;4.53;;;2.70;;
16998;SDS011;10211;49.476;11.010;2023-11-21T12:41:20;2.93;;;2.73;;
16998;SDS011;10211;49.476;11.010;2023-11-21T12:43:48;2.90;;;2.70;;
16998;SDS011;10211;49.476;11.010;2023-11-21T12:46:16;3.20;;;2.87;;
16998;SDS011;10211;49.476;11.010;2023-11-21T12:48:43;2.67;;;2.23;;
16998;SDS011;10211;49.476;11.010;2023-11-21T12:51:11;3.20;;;2.20;;
16998;SDS011;10211;49.476;11.010;2023-11-21T12:53:39;3.43;;;2.53;;
16998;SDS011;10211;49.476;11.010;2023-11-21T12:56:07;3.93;;;2.30;;
16998;SDS011;10211;49.476;11.010;2023-11-21T12:58:36;2.20;;;1.97;;
16998;SDS011;10211;49.476;11.010;2023-11-21T13:01:04;5.67;;;2.50;;
16998;SDS011;10211;49.476;11.010;2023-11-21T13:03:37;4.17;;;2.83;;
16998;SDS011;10211;49.476;11.010;2023-11-21T13:06:05;6.80;;;3.00;;
16998;SDS011;10211;49.476;11.010;2023-11-21T13:08:33;3.97;;;2.57;;
16998;SDS011;10211;49.476;11.010;2023-11-21T13:11:00;2.97;;;2.67;;
16998;SDS011;10211;49.476;11.010;2023-11-21T13:13:28;5.37;;;2.87;;
16998;SDS011;10211;49.476;11.010;2023-11-21T13:15:56;2.93;;;2.70;;
16998;SDS011;10211;49.476;11.010;2023-11-21T13:18:27;6.23;;;3.03;;
16998;SDS011;10211;49.476;11.010;2023-11-21T13:20:58;6.87;;;2.73;;
16998;SDS011;10211;49.476;11.010;2023-11-21T13:23:26;6.17;;;2.60;;
16998;SDS011;10211;49.476;11.010;2023-11-21T13:25:54;2.70;;;2.27;;
16998;SDS011;10211;49.476;11.010;2023-11-21T13:28:21;2.27;;;2.07;;
16998;SDS011;10211;49.476;11.010;2023-11-21T13:30:49;2.60;;;2.40;;
16998;SDS011;10211;49.476;11.010;2023-11-21T13:33:18;2.47;;;1.90;;
16998;SDS011;10211;49.476;11.010;2023-11-21T13:35:46;3.90;;;1.97;;
16998;SDS011;10211;49.476;11.010;2023-11-21T13:38:18;3.77;;;2.00;;
16998;SDS011;10211;49.476;11.010;2023-11-21T13:40:48;4.03;;;2.63;;
16998;SDS011;10211;49.476;11.010;2023-11-21T13:43:18;5.50;;;2.50;;
16998;SDS011;10211;49.476;11.010;2023-11-21T13:45:47;4.83;;;2.10;;
16998;SDS011;10211;49.476;11.010;2023-11-21T13:48:16;5.50;;;1.80;;
16998;SDS011;10211;49.476;11.010;2023-11-21T13:50:50;1.50;;;1.40;;
16998;SDS011;10211;49.476;11.010;2023-11-21T13:53:25;4.00;;;1.50;;
16998;SDS011;10211;49.476;11.010;2023-11-21T13:55:52;2.87;;;1.30;;
16998;SDS011;10211;49.476;11.010;2023-11-21T13:58:22;2.37;;;1.53;;
16998;SDS011;10211;49.476;11.010;2023-11-21T14:00:59;2.23;;;1.70;;
16998;SDS011;10211;49.476;11.010;2023-11-21T14:03:26;2.67;;;1.47;;
16998;SDS011;10211;49.476;11.010;2023-11-21T14:06:03;1.30;;;1.20;;
16998;SDS011;10211;49.476;11.010;2023-11-21T14:08:40;1.40;;;1.30;;
16998;SDS011;10211;49.476;11.010;2023-11-21T14:11:07;3.23;;;1.70;;
16998;SDS011;10211;49.476;11.010;2023-11-21T14:13:36;5.70;;;1.50;;
16998;SDS011;10211;49.476;11.010;2023-11-21T14:16:03;3.00;;;1.70;;
16998;SDS011;10211;49.476;11.010;2023-11-21T14:18:31;2.60;;;1.93;;
16998;SDS011;10211;49.476;11.010;2023-11-21T14:21:03;1.53;;;1.23;;
16998;SDS011;10211;49.476;11.010;2023-11-21T14:23:30;3.20;;;1.70;;
16998;SDS011;10211;49.476;11.010;2023-11-21T14:26:02;4.27;;;1.60;;
16998;SDS011;10211;49.476;11.010;2023-11-21T14:28:29;4.37;;;1.90;;
16998;SDS011;10211;49.476;11.010;2023-11-21T14:30:56;3.27;;;1.60;;
16998;SDS011;10211;49.476;11.010;2023-11-21T14:33:22;1.70;;;1.60;;
16998;SDS011;10211;49.476;11.010;2023-11-21T14:35:49;2.40;;;1.50;;
16998;SDS011;10211;49.476;11.010;2023-11-21T14:38:16;1.70;;;1.60;;
16998;SDS011;10211;49.476;11.010;2023-11-21T14:40:44;2.77;;;1.70;;
16998;SDS011;10211;49.476;11.010;2023-11-21T14:43:26;2.07;;;1.50;;
16998;SDS011;10211;49.476;11.010;2023-11-21T14:45:55;3.40;;;1.90;;